Time;durP1;ratioP1;P1;durP2;ratioP2;P2;SDS_P1;SDS_P2;PMS_P1;PMS_P2;Temp;Humidity;BMP_temperature;BMP_pressure;BME280_temperature;BME280_humidity;BME280_pressure;Samples;Min_cycle;Max_cycle;Signal;HPM_P1;HPM_P2
2022/09/13 00:02:20;;;;;;;18.10;12.90;;;;;;;17.34;78.54;100895.06;4953308;28;20040;-74
2022/09/13 00:04:47;;;;;;;18.92;12.63;;;;;;;17.32;78.75;100894.28;4952788;28;20047;-74
2022/09/13 00:07:14;;;;;;;17.00;12.45;;;;;;;17.31;78.65;100892.56;4953131;28;20056;-74
2022/09/13 00:09:41;;;;;;;16.05;12.50;;;;;;;17.30;78.93;100894.38;4953115;28;20043;-74
2022/09/13 00:12:08;;;;;;;14.75;12.55;;;;;;;17.31;79.00;100900.56;4952477;28;20962;-74
2022/09/13 00:14:35;;;;;;;18.10;12.68;;;;;;;17.31;78.98;100892.56;4952348;28;20055;-73
2022/09/13 00:17:02;;;;;;;16.55;12.65;;;;;;;17.33;78.98;100894.22;4952552;28;20071;-73
2022/09/13 00:19:29;;;;;;;20.42;13.18;;;;;;;17.32;78.92;100892.50;4953681;28;20784;-76
2022/09/13 00:21:56;;;;;;;17.00;12.05;;;;;;;17.33;78.88;100894.22;4952626;28;20039;-75
2022/09/13 00:24:25;;;;;;;16.85;12.52;;;;;;;17.33;79.07;100890.66;4952242;28;20048;-75
2022/09/13 00:26:52;;;;;;;17.25;12.35;;;;;;;17.34;78.98;100890.59;4950321;28;20052;-75
2022/09/13 00:29:19;;;;;;;18.50;13.55;;;;;;;17.35;78.96;100886.97;4934510;28;20046;-75
2022/09/13 00:31:46;;;;;;;21.17;13.23;;;;;;;17.37;78.96;100870.91;4953270;28;20044;-75
2022/09/13 00:34:13;;;;;;;16.02;12.93;;;;;;;17.34;78.95;100876.41;4951541;28;20103;-74
2022/09/13 00:36:40;;;;;;;14.70;12.45;;;;;;;17.33;79.05;100875.56;4952237;28;20127;-75
2022/09/13 00:39:10;;;;;;;17.45;13.18;;;;;;;17.32;79.00;100876.50;4951506;28;20451;-75
2022/09/13 00:41:37;;;;;;;18.08;13.88;;;;;;;17.32;78.91;100867.63;4951289;28;20059;-74
2022/09/13 00:44:42;;;;;;;17.45;11.82;;;;;;;17.32;79.06;100870.31;4950936;28;20044;-74
2022/09/13 00:47:14;;;;;;;18.70;13.45;;;;;;;17.30;78.98;100862.41;4944425;28;20096;-73
2022/09/13 00:49:45;;;;;;;18.92;13.88;;;;;;;17.27;78.72;100859.91;4951022;28;20047;-74
2022/09/13 00:52:19;;;;;;;20.48;15.63;;;;;;;17.27;79.10;100854.59;4945345;28;20051;-74
2022/09/13 00:55:03;;;;;;;17.17;14.18;;;;;;;17.27;79.04;100857.25;4948973;28;20043;-73
2022/09/13 00:57:34;;;;;;;21.83;14.85;;;;;;;17.26;78.99;100858.19;4950656;28;20055;-74
2022/09/13 01:00:12;;;;;;;19.23;14.60;;;;;;;17.29;78.93;100855.34;4949349;28;21276;-73
2022/09/13 01:02:49;;;;;;;21.45;14.50;;;;;;;17.33;79.23;100850.72;4951655;28;20083;-73
2022/09/13 01:05:23;;;;;;;16.85;14.63;;;;;;;17.31;79.15;100845.47;4950225;28;20040;-73
2022/09/13 01:07:51;;;;;;;19.05;13.77;;;;;;;17.33;79.20;100838.25;4951299;28;20066;-74
2022/09/13 01:10:18;;;;;;;16.88;13.65;;;;;;;17.33;79.10;100838.25;4950177;28;20095;-74
2022/09/13 01:13:04;;;;;;;17.88;14.10;;;;;;;17.36;79.20;100840.72;4952037;28;20046;-74
2022/09/13 01:15:31;;;;;;;16.92;14.43;;;;;;;17.35;79.10;100844.31;4951885;28;20048;-74
2022/09/13 01:17:58;;;;;;;16.95;13.65;;;;;;;17.36;79.27;100834.53;4952319;28;20502;-74
2022/09/13 01:20:51;;;;;;;17.90;13.70;;;;;;;17.39;79.19;100843.22;4951159;28;20079;-75
2022/09/13 01:24:12;;;;;;;16.27;14.23;;;;;;;17.41;78.94;100843.13;4952701;28;20091;-75
2022/09/13 01:27:27;;;;;;;18.02;14.82;;;;;;;17.42;78.68;100849.31;4945540;28;20489;-75
2022/09/13 01:30:19;;;;;;;19.60;14.95;;;;;;;17.42;78.70;100849.31;4944474;28;20079;-74
2022/09/13 01:33:23;;;;;;;17.92;14.70;;;;;;;17.44;78.68;100852.75;4937392;28;20389;-75
2022/09/13 01:36:37;;;;;;;19.00;14.63;;;;;;;17.45;78.51;100851.81;4950455;28;20051;-75
2022/09/13 01:39:11;;;;;;;19.05;14.38;;;;;;;17.44;78.31;100853.59;4950251;28;20047;-76
2022/09/13 01:42:02;;;;;;;18.13;14.52;;;;;;;17.45;78.44;100852.66;4951588;28;20110;-76
2022/09/13 01:45:15;;;;;;;16.73;13.73;;;;;;;17.47;78.30;100853.44;4951728;28;20051;-75
2022/09/13 01:47:58;;;;;;;15.98;13.45;;;;;;;17.46;78.21;100840.16;4945101;28;20070;-76
2022/09/13 01:50:43;;;;;;;21.40;14.43;;;;;;;17.46;78.26;100846.38;4951280;28;20040;-78
2022/09/13 01:53:31;;;;;;;17.58;14.30;;;;;;;17.46;78.46;100846.38;4947074;28;20056;-78
2022/09/13 01:56:27;;;;;;;18.80;14.45;;;;;;;17.45;78.57;100842.00;4951008;28;20054;-76
2022/09/13 01:59:04;;;;;;;18.08;14.07;;;;;;;17.45;78.66;100846.47;4946367;28;20526;-75
2022/09/13 02:01:45;;;;;;;16.38;13.38;;;;;;;17.43;78.54;100846.56;4949715;28;20105;-74
2022/09/13 02:04:26;;;;;;;17.25;13.73;;;;;;;17.41;78.54;100848.44;4951499;28;20044;-74
2022/09/13 02:07:07;;;;;;;15.45;13.75;;;;;;;17.39;78.84;100851.22;4948761;28;20050;-76
2022/09/13 02:09:44;;;;;;;15.48;13.70;;;;;;;17.39;78.59;100848.53;4952048;28;20544;-76
2022/09/13 02:12:23;;;;;;;19.83;13.88;;;;;;;17.37;78.76;100847.78;4952749;28;20458;-76
2022/09/13 02:15:18;;;;;;;18.05;13.02;;;;;;;17.35;78.70;100836.34;4952415;28;20754;-76
2022/09/13 02:18:16;;;;;;;18.30;14.13;;;;;;;17.33;79.15;100835.59;4948182;28;20056;-76
2022/09/13 02:20:52;;;;;;;16.98;13.85;;;;;;;17.32;78.96;100838.31;4954855;28;20043;-76
2022/09/13 02:23:36;;;;;;;15.68;13.75;;;;;;;17.32;78.80;100841.88;4954722;28;20534;-74
2022/09/13 02:26:06;;;;;;;17.85;13.55;;;;;;;17.31;79.01;100844.59;4952419;28;20047;-74
2022/09/13 02:28:46;;;;;;;16.35;12.32;;;;;;;17.29;79.16;100842.03;4943800;28;20115;-77
2022/09/13 02:31:22;;;;;;;19.67;14.23;;;;;;;17.27;79.38;100846.59;4953898;28;20050;-78
2022/09/13 02:34:04;;;;;;;15.63;13.27;;;;;;;17.28;79.19;100842.13;4954556;28;20039;-77
2022/09/13 02:36:39;;;;;;;16.88;13.70;;;;;;;17.29;79.39;100831.38;4942502;28;20523;-79
2022/09/13 02:39:14;;;;;;;14.75;13.15;;;;;;;17.29;79.57;100828.72;4954020;28;20048;-78
2022/09/13 02:41:55;;;;;;;14.88;13.10;;;;;;;17.28;79.29;100832.31;4953513;28;20123;-77
2022/09/13 02:44:48;;;;;;;19.15;14.25;;;;;;;17.26;79.54;100828.03;4953539;28;20710;-78
2022/09/13 02:47:48;;;;;;;15.98;13.75;;;;;;;17.27;79.42;100829.75;4948556;28;20060;-78
2022/09/13 02:50:57;;;;;;;19.48;13.68;;;;;;;17.26;79.44;100828.03;4943584;28;20103;-77
2022/09/13 02:53:41;;;;;;;17.90;13.63;;;;;;;17.28;79.22;100840.31;4953480;28;20047;-77
2022/09/13 02:56:49;;;;;;;16.73;13.15;;;;;;;17.26;78.93;100841.38;4954218;28;20080;-78
2022/09/13 02:59:23;;;;;;;15.18;13.18;;;;;;;17.26;79.23;100846.69;4947333;28;20073;-77
2022/09/13 03:02:13;;;;;;;15.38;13.20;;;;;;;17.26;79.03;100842.22;4950975;28;20052;-77
2022/09/13 03:04:40;;;;;;;17.73;13.38;;;;;;;17.26;79.14;100857.34;4945951;28;20047;-77
2022/09/13 03:07:12;;;;;;;16.58;12.73;;;;;;;17.23;79.28;100859.25;4953923;28;20043;-77
2022/09/13 03:09:51;;;;;;;15.77;12.60;;;;;;;17.23;79.16;100853.06;4953035;28;20043;-76
2022/09/13 03:12:59;;;;;;;14.35;12.52;;;;;;;17.28;79.01;100856.31;4950848;28;20047;-77
2022/09/13 03:16:15;;;;;;;16.70;13.27;;;;;;;17.25;79.13;100850.31;4946593;28;20032;-78
2022/09/13 03:19:16;;;;;;;21.00;13.70;;;;;;;17.23;79.30;100853.91;4953289;28;20043;-75
2022/09/13 03:22:09;;;;;;;16.42;13.25;;;;;;;17.22;79.35;100856.66;4954114;28;20071;-77
2022/09/13 03:25:18;;;;;;;19.98;14.02;;;;;;;17.22;79.50;100846.03;4950164;28;20055;-77
2022/09/13 03:27:55;;;;;;;16.45;12.82;;;;;;;17.21;79.71;100845.16;4948210;28;20044;-77
2022/09/13 03:30:22;;;;;;;17.40;13.35;;;;;;;17.20;79.93;100846.09;4953262;28;20039;-77
2022/09/13 03:33:01;;;;;;;17.55;13.63;;;;;;;17.21;80.02;100841.63;4953520;28;20043;-78
2022/09/13 03:35:40;;;;;;;18.30;13.57;;;;;;;17.19;80.22;100839.06;4951006;28;20052;-78
2022/09/13 03:38:15;;;;;;;19.73;13.80;;;;;;;17.18;80.22;100834.69;4953861;28;20040;-77
2022/09/13 03:40:58;;;;;;;15.95;13.73;;;;;;;17.20;80.14;100830.09;4950808;28;20131;-77
2022/09/13 03:43:39;;;;;;;18.20;12.13;;;;;;;17.19;80.20;100832.88;4952467;28;20048;-78
2022/09/13 03:46:14;;;;;;;16.90;12.07;;;;;;;17.18;80.28;100837.34;4950040;28;20527;-75
2022/09/13 03:48:44;;;;;;;16.58;11.82;;;;;;;17.20;80.29;100834.59;4951828;28;20107;-74
2022/09/13 03:51:13;;;;;;;14.23;11.98;;;;;;;17.19;80.33;100816.88;4951186;28;20075;-75
2022/09/13 03:53:55;;;;;;;15.00;11.82;;;;;;;17.21;79.92;100829.16;4949992;28;21336;-77
2022/09/13 03:56:25;;;;;;;17.13;12.35;;;;;;;17.22;80.28;100828.22;4952997;28;20424;-77
2022/09/13 03:58:53;;;;;;;13.45;11.48;;;;;;;17.22;80.11;100830.88;4952759;28;20044;-77
2022/09/13 04:01:23;;;;;;;14.98;10.70;;;;;;;17.22;80.28;100830.88;4952774;28;20039;-76
2022/09/13 04:03:51;;;;;;;12.35;9.93;;;;;;;17.23;80.01;100845.06;4952064;28;20139;-76
2022/09/13 04:06:23;;;;;;;17.92;11.27;;;;;;;17.20;79.78;100829.25;4946861;28;20051;-75
2022/09/13 04:08:50;;;;;;;17.73;10.80;;;;;;;17.19;79.53;100833.75;4951037;28;20538;-76
2022/09/13 04:11:17;;;;;;;18.38;11.00;;;;;;;17.21;79.39;100830.97;4952996;28;20491;-75
2022/09/13 04:13:44;;;;;;;16.58;10.50;;;;;;;17.21;79.48;100833.66;4952959;28;20801;-76
2022/09/13 04:16:11;;;;;;;16.92;11.52;;;;;;;17.22;79.46;100838.03;4952235;28;20059;-76
2022/09/13 04:18:38;;;;;;;19.92;11.63;;;;;;;17.19;79.20;100841.75;4952498;28;20044;-76
2022/09/13 04:21:06;;;;;;;25.92;12.60;;;;;;;17.18;79.17;100850.66;4951961;28;20048;-76
2022/09/13 04:23:33;;;;;;;19.58;10.90;;;;;;;17.14;79.19;100848.28;4953221;28;20054;-76
2022/09/13 04:26:05;;;;;;;17.98;10.75;;;;;;;17.14;79.38;100853.59;4953630;28;20036;-76
2022/09/13 04:28:32;;;;;;;14.00;10.23;;;;;;;17.12;79.40;100845.69;4951860;28;20158;-75
2022/09/13 04:30:59;;;;;;;18.67;9.88;;;;;;;17.13;79.30;100851.88;4950815;28;20043;-74
2022/09/13 04:33:26;;;;;;;21.52;10.80;;;;;;;17.14;79.45;100867.75;4958093;28;20043;-75
2022/09/13 04:35:58;;;;;;;15.07;10.48;;;;;;;17.19;79.45;100864.84;4959053;28;20946;-75
2022/09/13 04:38:26;;;;;;;13.68;10.02;;;;;;;17.22;79.47;100864.66;4954802;28;20048;-74
2022/09/13 04:40:55;;;;;;;13.75;9.98;;;;;;;17.23;79.51;100864.56;4956401;28;20051;-76
2022/09/13 04:43:23;;;;;;;20.80;10.70;;;;;;;17.26;79.54;100866.19;4961806;28;20050;-75
2022/09/13 04:45:50;;;;;;;16.80;10.18;;;;;;;17.28;79.50;100860.78;4959437;28;20055;-76
2022/09/13 04:48:17;;;;;;;15.25;10.27;;;;;;;17.28;79.37;100874.09;4958916;28;20047;-76
2022/09/13 04:50:45;;;;;;;26.17;10.32;;;;;;;17.28;79.22;100869.63;4962105;28;20046;-75
2022/09/13 04:53:12;;;;;;;21.67;10.70;;;;;;;17.29;79.29;100868.69;4953353;28;20071;-75
2022/09/13 04:55:39;;;;;;;17.58;10.90;;;;;;;17.30;79.29;100872.19;4956941;28;20044;-77
2022/09/13 04:58:06;;;;;;;17.52;10.98;;;;;;;17.29;79.35;100876.66;4951206;28;20058;-76
2022/09/13 05:00:34;;;;;;;20.20;10.85;;;;;;;17.30;79.23;100874.84;4955842;28;20480;-76
2022/09/13 05:03:01;;;;;;;18.98;10.02;;;;;;;17.31;79.21;100873.91;4953481;28;20044;-76
2022/09/13 05:05:30;;;;;;;18.60;10.55;;;;;;;17.31;79.02;100876.56;4967094;28;20126;-76
2022/09/13 05:07:57;;;;;;;16.02;10.65;;;;;;;17.30;78.87;100870.41;4956543;28;20048;-76
2022/09/13 05:10:24;;;;;;;10.82;8.55;;;;;;;17.31;78.77;100877.44;4951805;28;20566;-76
2022/09/13 05:12:51;;;;;;;19.02;10.80;;;;;;;17.32;78.65;100873.84;4951492;28;20551;-75
2022/09/13 05:15:18;;;;;;;16.70;10.38;;;;;;;17.33;78.88;100877.34;4951447;28;20050;-76
2022/09/13 05:17:45;;;;;;;23.15;10.77;;;;;;;17.33;78.98;100875.56;4951282;28;20051;-76
2022/09/13 05:20:12;;;;;;;29.23;10.45;;;;;;;17.34;79.00;100874.63;4951857;28;20480;-76
2022/09/13 05:22:39;;;;;;;26.05;11.38;;;;;;;17.35;79.10;100878.97;4952295;28;20534;-76
2022/09/13 05:25:07;;;;;;;16.10;10.13;;;;;;;17.39;78.96;100885.00;4951657;28;20100;-76
2022/09/13 05:27:34;;;;;;;18.80;9.80;;;;;;;17.41;78.72;100877.75;4951327;28;20095;-76
2022/09/13 05:30:02;;;;;;;35.85;11.40;;;;;;;17.44;78.39;100880.25;4955053;28;20047;-76
2022/09/13 05:32:31;;;;;;;53.78;12.95;;;;;;;17.51;78.47;100888.75;4950195;28;20035;-74
2022/09/13 05:34:58;;;;;;;16.88;9.75;;;;;;;17.54;78.26;100889.41;4948874;28;20581;-74
2022/09/13 05:37:25;;;;;;;19.10;9.57;;;;;;;17.58;78.11;100886.59;4952271;28;20044;-74
2022/09/13 05:39:52;;;;;;;23.88;9.57;;;;;;;17.61;78.08;100881.03;4955171;28;20047;-75
2022/09/13 05:42:37;;;;;;;25.65;10.05;;;;;;;17.63;78.11;100887.16;4953134;28;20070;-76
2022/09/13 05:45:05;;;;;;;19.17;9.40;;;;;;;17.66;78.15;100884.31;4962506;28;20040;-76
2022/09/13 05:47:32;;;;;;;21.70;9.85;;;;;;;17.69;77.86;100890.31;4956566;28;20530;-74
2022/09/13 05:50:00;;;;;;;37.40;11.18;;;;;;;17.73;77.59;100882.16;4951855;28;20044;-76
2022/09/13 05:52:57;;;;;;;56.50;13.10;;;;;;;17.77;77.67;100875.66;4959691;28;20472;-76
2022/09/13 05:55:24;;;;;;;40.95;11.90;;;;;;;17.78;77.78;100872.03;4952268;28;20866;-76
2022/09/13 05:57:51;;;;;;;18.70;10.02;;;;;;;17.81;77.85;100887.88;4952145;28;20058;-76
2022/09/13 06:00:31;;;;;;;21.40;10.43;;;;;;;17.86;77.49;100888.44;4949989;28;20039;-76
2022/09/13 06:02:59;;;;;;;24.63;9.88;;;;;;;17.88;77.68;100883.03;4948884;28;20052;-76
2022/09/13 06:05:26;;;;;;;23.80;11.07;;;;;;;17.90;77.52;100881.13;4956578;28;20043;-76
2022/09/13 06:07:58;;;;;;;18.88;9.73;;;;;;;17.92;77.33;100885.41;4951554;28;20047;-75
2022/09/13 06:10:25;;;;;;;17.10;9.30;;;;;;;17.93;76.86;100876.47;4952332;28;20515;-76
2022/09/13 06:12:52;;;;;;;17.40;8.90;;;;;;;17.94;76.71;100878.19;4952228;28;20047;-75
2022/09/13 06:15:19;;;;;;;25.67;9.27;;;;;;;18.02;76.19;100880.41;4952601;28;20778;-76
2022/09/13 06:17:46;;;;;;;23.25;9.23;;;;;;;18.08;76.37;100876.50;4951850;28;20106;-76
2022/09/13 06:20:13;;;;;;;26.25;10.32;;;;;;;18.15;76.27;100886.69;4952698;28;20047;-76
2022/09/13 06:22:40;;;;;;;21.08;8.57;;;;;;;18.24;75.99;100881.75;4947939;28;20794;-76
2022/09/13 06:25:08;;;;;;;15.02;8.32;;;;;;;18.28;75.33;100885.94;4960532;28;20043;-76
2022/09/13 06:27:35;;;;;;;16.10;8.93;;;;;;;18.33;74.73;100897.19;4951060;28;20044;-75
2022/09/13 06:30:03;;;;;;;14.05;8.93;;;;;;;18.37;74.67;100892.50;4951897;28;20043;-75
2022/09/13 06:32:30;;;;;;;11.85;9.50;;;;;;;18.40;74.63;100887.84;4952715;28;20059;-75
2022/09/13 06:34:57;;;;;;;14.48;9.63;;;;;;;18.43;74.45;100892.16;4951608;28;20084;-76
2022/09/13 06:37:24;;;;;;;17.00;9.20;;;;;;;18.50;74.46;100890.78;4951925;28;20057;-76
2022/09/13 06:39:51;;;;;;;11.55;9.63;;;;;;;18.55;74.07;100891.38;4952706;28;20420;-76
2022/09/13 06:42:18;;;;;;;13.43;8.75;;;;;;;18.59;74.34;100900.88;4951863;28;20095;-76
2022/09/13 06:44:47;;;;;;;18.98;9.90;;;;;;;18.63;74.16;100886.41;4951928;28;20044;-75
2022/09/13 06:47:14;;;;;;;22.38;9.88;;;;;;;18.66;74.19;100885.34;4951962;28;20044;-75
2022/09/13 06:49:41;;;;;;;18.80;10.02;;;;;;;18.69;74.04;100882.50;4935140;28;20527;-76
2022/09/13 06:52:08;;;;;;;18.98;9.90;;;;;;;18.71;74.04;100877.91;4950358;28;20047;-75
2022/09/13 06:54:36;;;;;;;17.10;10.38;;;;;;;18.76;73.59;100886.47;4955070;28;20040;-76
2022/09/13 06:57:05;;;;;;;14.68;10.10;;;;;;;18.77;73.93;100882.00;4954995;28;20040;-76
2022/09/13 06:59:34;;;;;;;22.95;10.55;;;;;;;18.85;73.94;100882.34;4954814;28;20106;-76
2022/09/13 07:02:02;;;;;;;16.40;9.82;;;;;;;18.98;74.01;100879.78;4954328;28;20103;-76
2022/09/13 07:04:33;;;;;;;16.08;10.32;;;;;;;19.05;73.51;100880.22;4935913;29;20830;-76
2022/09/13 07:07:00;;;;;;;32.45;12.90;;;;;;;19.03;73.40;100883.00;4945400;28;20531;-75
2022/09/13 07:09:27;;;;;;;25.05;11.85;;;;;;;19.02;73.57;100877.75;4954746;28;20052;-76
2022/09/13 07:11:55;;;;;;;19.27;11.20;;;;;;;19.09;73.53;100879.06;4953638;28;20059;-75
2022/09/13 07:14:27;;;;;;;24.58;11.90;;;;;;;19.17;73.62;100881.22;4956608;28;20048;-75
2022/09/13 07:16:56;;;;;;;41.97;13.82;;;;;;;19.20;73.29;100884.56;4965082;28;20048;-75
2022/09/13 07:19:26;;;;;;;28.77;12.45;;;;;;;19.25;72.88;100884.25;4955153;28;20115;-75
2022/09/13 07:21:56;;;;;;;29.30;12.50;;;;;;;19.26;73.16;100882.44;4953203;28;20048;-76
2022/09/13 07:24:24;;;;;;;16.58;12.10;;;;;;;19.35;73.10;100880.00;4954802;28;20039;-75
2022/09/13 07:26:51;;;;;;;19.92;12.43;;;;;;;19.46;73.02;100878.44;4954021;28;20052;-75
2022/09/13 07:29:22;;;;;;;33.85;13.07;;;;;;;19.53;72.72;100888.63;4954033;28;20567;-76
2022/09/13 07:31:53;;;;;;;23.83;12.57;;;;;;;19.64;72.71;100885.19;4954592;28;20123;-76
2022/09/13 07:34:25;;;;;;;35.85;14.70;;;;;;;19.75;72.72;100891.63;4953843;28;20500;-75
2022/09/13 07:36:53;;;;;;;24.48;14.13;;;;;;;19.88;72.32;100889.03;4954447;28;20040;-75
2022/09/13 07:39:20;;;;;;;26.35;14.27;;;;;;;19.97;72.34;100886.56;4954431;28;20051;-75
2022/09/13 07:41:50;;;;;;;24.52;15.43;;;;;;;20.05;72.03;100894.06;4954051;28;20110;-76
2022/09/13 07:44:18;;;;;;;38.55;15.98;;;;;;;20.10;72.03;100901.75;4952064;28;20531;-75
2022/09/13 07:46:45;;;;;;;49.63;17.25;;;;;;;20.13;71.31;100899.72;4954569;28;20510;-75
2022/09/13 07:49:17;;;;;;;24.52;14.77;;;;;;;20.20;71.49;100908.19;4954631;28;20099;-75
2022/09/13 07:54:37;;;;;;;21.85;14.90;;;;;;;20.38;71.22;100913.19;4915792;29;20049;-74
2022/09/13 07:57:17;;;;;;;29.30;15.30;;;;;;;20.47;70.88;100913.41;4915491;29;20118;-74
2022/09/13 07:59:48;;;;;;;29.45;15.27;;;;;;;20.55;70.74;100907.50;4914418;29;20044;-75
2022/09/13 08:02:17;;;;;;;34.63;16.10;;;;;;;20.58;70.62;100899.25;4915909;29;20156;-75
2022/09/13 08:04:44;;;;;;;24.70;15.80;;;;;;;20.66;70.44;100909.41;4915077;29;20115;-75
2022/09/13 08:07:11;;;;;;;29.02;16.63;;;;;;;20.75;70.92;100906.09;4915095;29;20092;-75
2022/09/13 08:09:38;;;;;;;23.90;16.13;;;;;;;20.90;70.58;100905.97;4916158;29;20041;-74
2022/09/13 08:12:05;;;;;;;25.27;15.45;;;;;;;21.04;69.98;100910.31;4915541;29;20045;-74
2022/09/13 08:14:38;;;;;;;21.85;16.33;;;;;;;21.19;69.60;100909.16;4915328;29;20047;-75
2022/09/13 08:24:29;;;;;;;26.48;18.45;;;;;;;21.62;67.80;100907.78;4912810;29;20041;-73
2022/09/13 08:26:56;;;;;;;25.25;15.80;;;;;;;21.71;66.93;100914.28;4915209;29;20132;-75
2022/09/13 08:29:24;;;;;;;28.00;18.33;;;;;;;21.76;67.45;100913.94;4915608;29;20048;-75
2022/09/13 08:31:51;;;;;;;31.45;18.70;;;;;;;21.80;67.00;100923.47;4915343;29;20794;-74
2022/09/13 08:34:20;;;;;;;29.80;18.08;;;;;;;21.85;67.37;100915.91;4911347;29;20572;-74
2022/09/13 08:38:02;;;;;;;30.00;20.02;;;;;;;22.01;66.96;100921.81;4914503;29;20045;-75
2022/09/13 08:41:53;;;;;;;38.75;19.75;;;;;;;22.30;66.32;100918.69;4912190;29;20104;-74
2022/09/13 08:44:40;;;;;;;30.55;16.98;;;;;;;22.52;65.22;100916.13;4911755;29;20107;-74
2022/09/13 08:47:39;;;;;;;40.60;19.50;;;;;;;22.64;65.16;100921.38;4916154;29;20098;-74
2022/09/13 08:50:27;;;;;;;24.95;17.35;;;;;;;22.73;64.27;100924.31;4920141;28;20036;-74
2022/09/13 08:53:23;;;;;;;26.77;17.08;;;;;;;22.77;64.32;100921.25;4924881;28;20065;-75
2022/09/13 08:56:45;;;;;;;26.30;16.85;;;;;;;22.86;64.28;100918.81;4950318;28;20518;-75
2022/09/13 08:59:50;;;;;;;28.77;17.38;;;;;;;22.93;64.51;100920.00;4946095;28;20074;-75
2022/09/13 09:03:17;;;;;;;25.85;15.60;;;;;;;23.06;63.22;100923.41;4952957;28;20044;-74
2022/09/13 09:05:50;;;;;;;29.90;17.42;;;;;;;23.09;63.30;100925.84;4930084;28;20135;-75
2022/09/13 09:08:32;;;;;;;20.38;14.52;;;;;;;23.16;63.14;100922.63;4952403;28;20122;-75
2022/09/13 09:11:40;;;;;;;22.33;16.60;;;;;;;23.19;62.90;100925.13;4942992;28;20467;-75
2022/09/13 09:14:30;;;;;;;24.63;15.88;;;;;;;23.23;63.49;100923.88;4946828;28;20125;-74
2022/09/13 09:17:17;;;;;;;19.92;13.98;;;;;;;23.33;62.77;100923.97;4952785;28;20036;-75
2022/09/13 09:20:35;;;;;;;22.63;15.10;;;;;;;23.44;62.49;100917.69;4952463;28;20106;-74
2022/09/13 09:23:18;;;;;;;27.23;15.35;;;;;;;23.58;62.76;100922.75;4943677;28;20468;-73
2022/09/13 09:25:56;;;;;;;22.95;14.40;;;;;;;23.68;61.97;100912.06;4952641;28;20058;-75
2022/09/13 09:28:24;;;;;;;22.80;14.02;;;;;;;23.77;62.48;100916.66;4950650;28;20508;-75
2022/09/13 09:31:31;;;;;;;28.88;14.85;;;;;;;23.90;61.57;100911.09;4948919;28;20043;-75
2022/09/13 09:34:16;;;;;;;23.55;16.25;;;;;;;23.96;61.21;100912.44;4932402;28;20131;-75
2022/09/13 09:37:07;;;;;;;30.83;16.02;;;;;;;24.01;61.54;100912.88;4947256;28;20044;-75
2022/09/13 09:39:38;;;;;;;15.98;12.23;;;;;;;24.14;60.85;100913.53;4953134;28;20044;-75
2022/09/13 09:42:20;;;;;;;18.60;12.88;;;;;;;24.29;60.68;100905.09;4953188;28;20035;-75
2022/09/13 09:48:21;;;;;;;24.65;12.73;;;;;;;24.27;60.84;100904.34;4950550;28;20078;-75
2022/09/13 09:50:53;;;;;;;17.50;10.55;;;;;;;24.36;60.14;100906.28;4952728;28;20567;-75
2022/09/13 09:53:30;;;;;;;15.82;12.60;;;;;;;24.47;60.30;100908.00;4951479;28;20056;-74
2022/09/13 09:56:21;;;;;;;38.97;14.00;;;;;;;24.58;60.43;100898.94;4951631;28;20099;-75
2022/09/13 09:58:51;;;;;;;23.52;12.73;;;;;;;24.72;59.55;100901.31;4952148;28;20127;-75
2022/09/13 10:01:29;;;;;;;46.70;14.25;;;;;;;24.83;59.54;100891.41;4951927;28;20583;-75
2022/09/13 10:04:18;;;;;;;14.10;10.35;;;;;;;24.88;58.69;100894.53;4952742;28;20082;-75
2022/09/13 10:06:48;;;;;;;20.65;10.95;;;;;;;24.95;58.16;100906.47;4952401;28;20044;-75
2022/09/13 10:09:21;;;;;;;17.13;11.07;;;;;;;25.00;58.17;100903.38;4952385;28;20519;-75
2022/09/13 10:11:58;;;;;;;27.33;9.73;;;;;;;25.07;58.34;100899.97;4952598;28;20150;-75
2022/09/13 10:14:33;;;;;;;10.07;7.90;;;;;;;25.05;58.28;100904.66;4951622;28;20044;-75
2022/09/13 10:17:26;;;;;;;12.45;7.65;;;;;;;24.99;57.80;100894.41;4951271;28;20044;-75
2022/09/13 10:19:58;;;;;;;11.37;6.93;;;;;;;24.87;58.23;100900.94;4957078;28;20099;-75
2022/09/13 10:22:29;;;;;;;12.07;6.47;;;;;;;24.88;58.10;100898.09;4960792;28;20094;-75
2022/09/13 10:25:30;;;;;;;19.13;8.35;;;;;;;25.05;58.56;100903.78;4964490;28;20053;-75
2022/09/13 10:27:59;;;;;;;15.13;7.40;;;;;;;25.23;58.23;100893.16;4911950;28;20056;-75
2022/09/13 10:30:45;;;;;;;12.10;6.20;;;;;;;25.23;57.08;100891.31;4957118;28;20471;-75
2022/09/13 10:33:33;;;;;;;17.40;7.72;;;;;;;25.25;56.96;100888.47;4975124;28;20043;-75
2022/09/13 10:36:16;;;;;;;17.13;7.75;;;;;;;25.16;57.52;100894.72;4965366;28;20051;-75
2022/09/13 10:39:16;;;;;;;10.07;7.82;;;;;;;25.30;57.06;100894.28;4954562;28;20586;-76
2022/09/13 10:41:52;;;;;;;18.55;8.95;;;;;;;25.23;57.11;100885.91;4954771;28;20657;-75
2022/09/13 10:44:50;;;;;;;29.00;8.68;;;;;;;25.21;57.33;100890.63;4955141;28;20075;-75
2022/09/13 10:51:34;;;;;;;20.50;7.43;;;;;;;25.47;57.67;100884.66;4944637;28;20130;-75
2022/09/13 10:54:16;;;;;;;11.95;6.45;;;;;;;25.65;57.16;100882.09;4951233;28;20115;-75
2022/09/13 10:56:45;;;;;;;16.83;9.25;;;;;;;25.52;56.72;100876.13;4945381;28;20039;-75
2022/09/13 11:02:39;;;;;;;18.38;6.70;;;;;;;25.48;56.15;100870.19;4955293;28;20839;-75
2022/09/13 11:05:25;;;;;;;15.35;6.72;;;;;;;25.56;56.47;100875.72;4953974;28;20072;-75
2022/09/13 11:08:24;;;;;;;17.98;5.90;;;;;;;25.54;56.40;100863.38;4954775;28;20039;-75
2022/09/13 11:11:45;;;;;;;16.00;6.40;;;;;;;25.34;56.39;100871.44;4954009;28;20601;-76
2022/09/13 11:14:31;;;;;;;10.02;6.35;;;;;;;25.23;57.30;100872.41;4943174;28;20500;-75
2022/09/13 11:17:26;;;;;;;11.73;6.05;;;;;;;25.34;56.81;100875.97;4953369;28;20043;-75
2022/09/13 11:20:50;;;;;;;9.00;5.78;;;;;;;25.51;55.63;100869.91;4955066;28;20111;-74
2022/09/13 11:23:32;;;;;;;8.20;6.57;;;;;;;25.49;56.53;100861.09;4941481;28;20052;-75
2022/09/13 11:26:36;;;;;;;30.30;8.88;;;;;;;25.55;56.52;100857.81;4954800;28;20039;-75
2022/09/13 11:30:09;;;;;;;17.58;5.75;;;;;;;25.54;56.58;100861.50;4899750;29;20152;-75
2022/09/13 11:32:54;;;;;;;11.65;6.53;;;;;;;25.44;57.39;100857.97;4939100;28;20114;-76
2022/09/13 11:35:50;;;;;;;17.20;6.10;;;;;;;25.42;57.18;100854.59;4936445;28;20044;-75
2022/09/13 11:38:40;;;;;;;11.13;6.13;;;;;;;25.52;56.54;100849.16;4935576;28;20048;-75
2022/09/13 11:41:27;;;;;;;27.35;6.28;;;;;;;25.70;56.30;100850.13;4953685;28;20048;-75
2022/09/13 11:44:22;;;;;;;14.73;6.07;;;;;;;25.81;55.38;100843.72;4954681;28;20780;-75
2022/09/13 11:47:11;;;;;;;12.43;5.78;;;;;;;25.84;55.89;100850.66;4953658;28;20047;-75
2022/09/13 11:50:09;;;;;;;9.43;4.53;;;;;;;25.99;55.64;100841.09;4953303;28;20107;-75
2022/09/13 11:52:56;;;;;;;9.40;5.30;;;;;;;26.26;54.88;100850.25;4947333;28;20143;-74
2022/09/13 11:56:38;;;;;;;17.08;4.85;;;;;;;26.50;54.76;100840.75;4953158;28;20048;-74
2022/09/13 12:01:11;;;;;;;18.95;5.78;;;;;;;26.65;54.14;100841.94;4955517;28;20051;-75
2022/09/13 12:05:42;;;;;;;24.33;6.88;;;;;;;26.72;53.47;100839.47;4944527;28;20044;-75
2022/09/13 12:10:14;;;;;;;20.33;4.68;;;;;;;26.60;54.19;100840.69;4952343;28;20175;-74
2022/09/13 12:17:55;;;;;;;13.70;4.63;;;;;;;26.35;54.35;100833.16;4920627;23;22554;-70
2022/09/13 12:20:48;;;;;;;8.13;4.85;;;;;;;26.27;53.88;100841.16;4903629;29;20076;-70
2022/09/13 12:23:27;;;;;;;19.35;4.68;;;;;;;26.26;53.93;100836.75;4924905;29;20072;-69
2022/09/13 12:26:21;;;;;;;10.55;4.82;;;;;;;26.39;53.44;100836.41;4934862;28;20048;-70
2022/09/13 12:28:56;;;;;;;19.70;4.72;;;;;;;26.56;53.28;100829.34;4921904;28;20589;-69
2022/09/13 12:31:27;;;;;;;7.00;3.35;;;;;;;26.68;53.16;100821.84;4909731;28;20128;-70
2022/09/13 12:33:56;;;;;;;7.25;3.40;;;;;;;26.97;52.03;100832.50;4912476;29;20052;-70
2022/09/13 12:36:58;;;;;;;6.70;3.70;;;;;;;27.09;51.96;100826.84;4903631;29;20045;-70